Time;durP1;ratioP1;P1;durP2;ratioP2;P2;SDS_P1;SDS_P2;PMS_P1;PMS_P2;Temp;Humidity;BMP_temperature;BMP_pressure;BME280_temperature;BME280_humidity;BME280_pressure;Samples;Min_cycle;Max_cycle;Signal;HPM_P1;HPM_P2
2023/05/18 00:02:05;;;;;;;14.90;4.82;;;;;;;8.16;100.00;101199.44;5034892;28;20022;-86
2023/05/18 00:04:35;;;;;;;12.50;5.03;;;;;;;8.21;100.00;101205.34;5037194;28;20037;-86
2023/05/18 00:07:10;;;;;;;20.77;5.20;;;;;;;8.20;100.00;101205.81;5036398;28;20077;-86
2023/05/18 00:09:36;;;;;;;22.45;5.15;;;;;;;8.16;100.00;101210.84;5037493;28;20084;-85
2023/05/18 00:12:11;;;;;;;16.80;6.03;;;;;;;8.16;100.00;101214.44;5037020;28;20033;-87
2023/05/18 00:14:37;;;;;;;15.20;5.85;;;;;;;8.03;100.00;101207.94;5037130;28;20116;-85
2023/05/18 00:17:03;;;;;;;16.10;5.68;;;;;;;7.98;100.00;101214.19;5037064;28;20104;-87
2023/05/18 00:19:29;;;;;;;14.63;5.55;;;;;;;7.90;100.00;101205.06;5037560;28;20038;-86
2023/05/18 00:21:56;;;;;;;18.67;7.05;;;;;;;7.91;100.00;101228.63;5036771;28;20033;-85
2023/05/18 00:24:23;;;;;;;12.35;4.70;;;;;;;7.88;100.00;101232.38;5038556;28;20100;-86
2023/05/18 00:26:50;;;;;;;17.95;5.93;;;;;;;7.82;100.00;101231.31;5037573;28;20026;-86
2023/05/18 00:29:16;;;;;;;14.65;4.88;;;;;;;7.76;100.00;101224.63;5019145;28;20074;-87
2023/05/18 00:31:44;;;;;;;12.60;4.47;;;;;;;7.74;100.00;101232.78;5037283;28;20112;-86
2023/05/18 00:34:21;;;;;;;12.18;4.82;;;;;;;7.69;100.00;101231.31;5036674;28;20025;-86
2023/05/18 00:36:49;;;;;;;15.75;5.18;;;;;;;7.61;100.00;101234.81;5036318;28;20151;-86
2023/05/18 00:39:15;;;;;;;16.88;5.28;;;;;;;7.59;100.00;101240.94;5036544;28;20478;-77
2023/05/18 00:41:42;;;;;;;14.70;5.28;;;;;;;7.58;100.00;101245.03;5034906;28;20021;-78
2023/05/18 00:44:09;;;;;;;12.25;6.22;;;;;;;7.47;100.00;101236.78;5035963;28;20491;-75
2023/05/18 00:46:35;;;;;;;16.33;5.50;;;;;;;7.50;100.00;101250.13;5035986;28;20472;-77
2023/05/18 00:49:02;;;;;;;15.50;4.88;;;;;;;7.50;100.00;101258.66;5036178;28;20036;-77
2023/05/18 00:51:28;;;;;;;15.10;4.65;;;;;;;7.48;100.00;101258.28;5035000;28;20471;-76
2023/05/18 00:53:54;;;;;;;16.60;4.03;;;;;;;7.49;100.00;101262.75;5001736;28;20036;-78
2023/05/18 00:56:32;;;;;;;29.92;6.13;;;;;;;7.52;100.00;101258.22;5034351;28;20053;-78
2023/05/18 00:59:00;;;;;;;12.10;4.75;;;;;;;7.55;100.00;101260.16;5035900;28;20111;-86
2023/05/18 01:01:42;;;;;;;17.55;4.25;;;;;;;7.56;100.00;101267.44;5036726;28;20037;-85
2023/05/18 01:04:09;;;;;;;12.15;4.60;;;;;;;7.49;100.00;101253.41;5052404;28;20001;-85
2023/05/18 01:06:35;;;;;;;15.52;5.55;;;;;;;7.58;100.00;101269.81;5060126;28;20018;-85
2023/05/18 01:09:04;;;;;;;14.45;4.68;;;;;;;7.53;100.00;101269.13;5060528;28;20036;-84
2023/05/18 01:12:08;;;;;;;14.85;4.80;;;;;;;7.62;100.00;101273.38;5039173;28;20053;-84
2023/05/18 01:14:53;;;;;;;14.95;4.32;;;;;;;7.61;100.00;101277.47;5037900;28;20383;-85
2023/05/18 01:17:35;;;;;;;14.57;4.82;;;;;;;7.61;100.00;101278.28;5036283;28;20060;-85
2023/05/18 01:20:37;;;;;;;11.40;4.15;;;;;;;7.60;100.00;101281.56;5040014;28;20030;-82
2023/05/18 01:23:44;;;;;;;13.73;5.10;;;;;;;7.57;100.00;101286.06;5038158;28;20029;-84
2023/05/18 01:26:23;;;;;;;16.30;5.95;;;;;;;7.53;100.00;101283.34;5035261;28;20021;-85
2023/05/18 01:28:50;;;;;;;11.93;4.78;;;;;;;7.53;100.00;101291.06;5036609;28;20056;-84
2023/05/18 01:31:18;;;;;;;14.95;4.40;;;;;;;7.52;100.00;101287.44;5034861;28;20037;-83
2023/05/18 01:33:53;;;;;;;9.95;4.40;;;;;;;7.44;100.00;101288.88;5036818;28;20112;-82
2023/05/18 01:36:18;;;;;;;10.43;5.03;;;;;;;7.46;100.00;101296.97;5036836;28;20029;-84
2023/05/18 01:38:44;;;;;;;14.57;4.70;;;;;;;7.43;100.00;101286.47;5036800;28;20060;-83
2023/05/18 01:41:22;;;;;;;15.60;4.50;;;;;;;7.45;100.00;101289.69;5035637;28;20094;-84
2023/05/18 01:44:25;;;;;;;10.77;5.57;;;;;;;7.43;100.00;101295.81;5037853;28;20037;-83
2023/05/18 01:47:08;;;;;;;18.10;5.32;;;;;;;7.41;100.00;101298.31;5042475;28;20071;-82
2023/05/18 01:49:44;;;;;;;15.05;4.78;;;;;;;7.36;100.00;101298.84;5043887;28;20037;-84
2023/05/18 01:52:34;;;;;;;19.15;6.05;;;;;;;7.29;100.00;101293.34;5044768;28;20025;-84
2023/05/18 01:55:02;;;;;;;13.18;4.57;;;;;;;7.27;100.00;101300.72;5024597;28;20057;-84
2023/05/18 01:57:38;;;;;;;15.55;5.25;;;;;;;7.30;100.00;101314.03;5036530;28;20140;-84
2023/05/18 02:00:09;;;;;;;11.48;4.20;;;;;;;7.28;100.00;101308.00;5033321;28;20060;-81
2023/05/18 02:02:38;;;;;;;15.70;6.65;;;;;;;7.25;100.00;101309.69;5018227;28;20068;-82
2023/05/18 02:05:06;;;;;;;11.90;4.57;;;;;;;7.24;100.00;101310.94;5034055;28;20382;-77
2023/05/18 02:07:32;;;;;;;7.72;3.70;;;;;;;7.22;100.00;101312.63;5034349;28;20029;-77
2023/05/18 02:09:59;;;;;;;9.07;3.95;;;;;;;7.18;100.00;101318.38;5034882;28;20036;-78
2023/05/18 02:12:24;;;;;;;12.68;3.35;;;;;;;7.18;100.00;101317.59;5033152;28;20032;-78
2023/05/18 02:14:50;;;;;;;15.95;4.75;;;;;;;7.14;100.00;101306.31;5034400;28;20029;-78
2023/05/18 02:17:16;;;;;;;13.82;3.72;;;;;;;7.13;100.00;101309.63;5016567;28;20033;-77
2023/05/18 02:19:42;;;;;;;12.30;4.28;;;;;;;7.06;100.00;101310.59;5033028;28;20471;-77
2023/05/18 02:22:10;;;;;;;13.50;5.35;;;;;;;7.11;100.00;101324.28;5034494;28;20025;-76
2023/05/18 02:24:36;;;;;;;10.40;3.75;;;;;;;7.05;100.00;101317.50;5034218;28;20025;-75
2023/05/18 02:27:04;;;;;;;11.25;3.25;;;;;;;7.12;100.00;101319.38;5032885;28;20033;-78
2023/05/18 02:29:32;;;;;;;21.55;3.72;;;;;;;7.07;100.00;101320.72;5032855;28;20042;-77
2023/05/18 02:31:58;;;;;;;12.18;3.40;;;;;;;7.11;100.00;101324.28;5034122;28;20029;-77
2023/05/18 02:34:26;;;;;;;11.77;3.28;;;;;;;7.10;100.00;101320.63;5032667;28;20029;-77
2023/05/18 02:36:56;;;;;;;14.48;4.72;;;;;;;7.13;100.00;101329.53;5033785;28;20471;-76
2023/05/18 02:39:23;;;;;;;8.95;3.15;;;;;;;7.09;100.00;101316.19;5033806;28;20037;-75
2023/05/18 02:41:51;;;;;;;6.63;2.80;;;;;;;7.16;100.00;101331.47;5032808;28;20479;-76
2023/05/18 02:44:17;;;;;;;17.83;4.03;;;;;;;7.16;100.00;101326.59;5033714;28;20029;-76
2023/05/18 02:46:44;;;;;;;11.05;5.03;;;;;;;7.19;100.00;101336.25;5032640;28;20029;-76
2023/05/18 02:49:11;;;;;;;8.38;3.15;;;;;;;7.17;100.00;101327.38;5033665;28;20029;-79
2023/05/18 02:51:38;;;;;;;10.48;4.32;;;;;;;7.20;100.00;101330.13;5034214;28;20387;-78
2023/05/18 02:54:03;;;;;;;9.85;3.65;;;;;;;7.21;100.00;101328.09;5033578;28;20021;-77
2023/05/18 02:56:31;;;;;;;7.63;3.50;;;;;;;7.20;100.00;101332.97;5032120;28;20063;-76
2023/05/18 02:58:59;;;;;;;11.85;3.58;;;;;;;7.21;100.00;101328.88;5033855;28;20044;-76
2023/05/18 03:01:25;;;;;;;9.30;3.05;;;;;;;7.23;100.00;101337.75;5033630;28;20025;-76
2023/05/18 03:03:58;;;;;;;9.82;2.90;;;;;;;7.23;100.00;101337.75;5033196;28;20104;-78
2023/05/18 03:06:25;;;;;;;13.27;3.85;;;;;;;7.24;100.00;101332.88;5033705;28;20401;-78
2023/05/18 03:08:55;;;;;;;13.10;3.13;;;;;;;7.27;100.00;101344.19;5015911;28;20029;-76
2023/05/18 03:11:22;;;;;;;8.45;3.08;;;;;;;7.28;100.00;101342.09;5032659;28;20021;-77
2023/05/18 03:13:49;;;;;;;10.00;3.17;;;;;;;7.23;100.00;101343.44;5015567;28;20558;-77
2023/05/18 03:16:15;;;;;;;17.20;3.75;;;;;;;7.23;100.00;101343.44;5033248;28;20095;-76
2023/05/18 03:18:42;;;;;;;10.85;2.95;;;;;;;7.23;100.00;101336.94;5033254;28;20056;-78
2023/05/18 03:21:09;;;;;;;7.28;3.38;;;;;;;7.27;100.00;101343.38;5034055;28;20033;-84
2023/05/18 03:23:36;;;;;;;8.43;4.47;;;;;;;7.26;100.00;101336.88;5037097;28;20021;-84
2023/05/18 03:26:02;;;;;;;11.82;3.08;;;;;;;7.29;100.00;101344.50;5037131;28;20026;-85
2023/05/18 03:28:29;;;;;;;11.82;4.35;;;;;;;7.32;100.00;101337.97;5035702;28;20022;-84
2023/05/18 03:30:57;;;;;;;8.45;2.33;;;;;;;7.34;100.00;101341.13;5032480;28;20033;-84
2023/05/18 03:33:23;;;;;;;8.77;3.00;;;;;;;7.32;100.00;101328.63;5034144;28;20386;-85
2023/05/18 03:36:01;;;;;;;9.52;2.22;;;;;;;7.44;100.00;101350.63;5032639;28;20040;-84
2023/05/18 03:38:27;;;;;;;7.45;2.75;;;;;;;7.47;100.00;101344.84;5032124;28;20013;-84
2023/05/18 03:40:54;;;;;;;9.07;2.97;;;;;;;7.49;100.00;101341.56;5033610;28;20037;-83
2023/05/18 03:43:24;;;;;;;11.88;2.60;;;;;;;7.57;100.00;101347.88;5035541;28;20100;-82
2023/05/18 03:45:51;;;;;;;6.82;2.60;;;;;;;7.64;100.00;101361.91;5033777;28;20148;-85
2023/05/18 03:48:18;;;;;;;8.50;2.80;;;;;;;7.67;100.00;101355.34;5035140;28;20037;-84
2023/05/18 03:50:44;;;;;;;6.95;2.97;;;;;;;7.70;100.00;101358.06;5034937;28;20022;-85
2023/05/18 03:53:12;;;;;;;14.40;3.50;;;;;;;7.76;100.00;101359.13;5017462;28;20036;-84
2023/05/18 03:55:37;;;;;;;10.02;2.65;;;;;;;7.82;100.00;101368.69;5033516;28;20067;-85
2023/05/18 03:58:21;;;;;;;11.32;3.03;;;;;;;7.88;100.00;101366.13;5016854;28;20463;-85
2023/05/18 04:00:48;;;;;;;8.75;2.63;;;;;;;7.93;100.00;101368.41;5033624;28;20507;-84
2023/05/18 04:03:14;;;;;;;6.65;2.30;;;;;;;7.98;100.00;101360.13;5017313;28;20117;-84
2023/05/18 04:05:42;;;;;;;6.50;2.55;;;;;;;8.08;100.00;101378.16;5036015;28;20029;-83
2023/05/18 04:08:13;;;;;;;13.55;2.35;;;;;;;8.15;100.00;101377.16;5036268;28;20021;-84
2023/05/18 04:10:42;;;;;;;6.72;2.30;;;;;;;8.21;100.00;101381.88;5033390;28;20075;-84
2023/05/18 04:13:16;;;;;;;8.60;2.72;;;;;;;8.27;100.00;101382.91;4999542;28;20076;-85
2023/05/18 04:15:42;;;;;;;9.30;2.45;;;;;;;8.29;100.00;101394.66;5034067;28;20025;-84
2023/05/18 04:18:09;;;;;;;6.50;2.15;;;;;;;8.30;100.00;101390.56;5032188;28;20037;-84
2023/05/18 04:20:36;;;;;;;10.70;1.98;;;;;;;8.35;100.00;101386.38;5033013;28;20036;-81
2023/05/18 04:23:11;;;;;;;9.25;2.63;;;;;;;8.39;100.00;101385.03;5033936;28;20034;-80
2023/05/18 04:25:38;;;;;;;11.52;2.53;;;;;;;8.35;100.00;101383.53;5037194;28;20037;-83
2023/05/18 04:28:05;;;;;;;4.85;2.15;;;;;;;8.52;100.00;101395.63;5037418;28;20529;-79
2023/05/18 04:30:32;;;;;;;11.82;2.72;;;;;;;8.59;100.00;101395.44;5037103;28;20096;-80
2023/05/18 04:32:59;;;;;;;4.13;1.95;;;;;;;8.67;100.00;101399.66;5036552;28;20048;-80
2023/05/18 04:35:26;;;;;;;8.80;2.03;;;;;;;8.63;100.00;101381.88;5055604;28;20037;-82
2023/05/18 04:37:53;;;;;;;6.20;2.22;;;;;;;8.72;100.00;101399.09;5057089;28;20024;-81
2023/05/18 04:40:19;;;;;;;11.40;2.38;;;;;;;8.70;100.00;101395.91;5036999;28;20056;-82
2023/05/18 04:42:46;;;;;;;9.05;3.13;;;;;;;8.70;100.00;101396.72;5038422;28;20478;-82
2023/05/18 04:45:27;;;;;;;8.57;2.60;;;;;;;8.74;100.00;101399.44;5038158;28;20029;-78
2023/05/18 04:47:54;;;;;;;13.38;2.70;;;;;;;8.74;100.00;101396.59;5054561;28;20075;-76
2023/05/18 04:50:22;;;;;;;8.75;2.08;;;;;;;8.82;100.00;101401.63;5055795;28;20032;-75
2023/05/18 04:53:11;;;;;;;4.68;2.40;;;;;;;8.92;100.00;101405.41;5054306;28;20024;-76
2023/05/18 04:55:37;;;;;;;7.85;3.08;;;;;;;9.00;100.00;101406.00;5054091;28;20395;-78
2023/05/18 04:58:03;;;;;;;9.73;2.50;;;;;;;9.08;100.00;101407.34;5055693;28;20079;-79
2023/05/18 05:00:32;;;;;;;8.68;2.92;;;;;;;9.14;100.00;101406.34;5055226;28;20398;-77
2023/05/18 05:02:58;;;;;;;8.43;2.90;;;;;;;9.20;100.00;101407.34;5053979;28;20327;-78
2023/05/18 05:05:25;;;;;;;11.00;2.72;;;;;;;9.30;100.00;101413.94;5054415;28;20021;-76
2023/05/18 05:07:56;;;;;;;9.25;3.15;;;;;;;9.40;100.00;101406.28;5035878;28;20044;-77
2023/05/18 05:10:22;;;;;;;9.38;2.50;;;;;;;9.53;100.00;101404.25;5033983;28;20470;-77
2023/05/18 05:12:51;;;;;;;13.10;2.55;;;;;;;9.65;100.00;101409.91;5035010;28;20033;-75
2023/05/18 05:15:18;;;;;;;8.98;3.00;;;;;;;9.72;100.00;101413.78;5056586;28;20053;-77
2023/05/18 05:17:46;;;;;;;7.43;2.47;;;;;;;9.79;100.00;101411.50;5054701;28;20059;-76
2023/05/18 05:20:13;;;;;;;7.25;2.78;;;;;;;9.89;100.00;101416.06;5044931;28;20026;-74
2023/05/18 05:22:40;;;;;;;8.48;3.17;;;;;;;9.94;100.00;101414.69;5050738;28;20031;-76
2023/05/18 05:25:12;;;;;;;11.43;2.75;;;;;;;9.98;100.00;101419.03;5054754;28;20516;-75
2023/05/18 05:27:37;;;;;;;7.07;2.10;;;;;;;10.04;100.00;101425.72;5053625;28;20023;-76
2023/05/18 05:30:03;;;;;;;6.68;2.72;;;;;;;10.13;100.00;101409.94;5054580;28;20025;-76
2023/05/18 05:32:29;;;;;;;7.20;2.25;;;;;;;10.21;100.00;101417.78;5053051;28;20037;-74
2023/05/18 05:34:54;;;;;;;8.18;2.42;;;;;;;10.28;100.00;101419.59;5052504;28;20446;-74
2023/05/18 05:37:20;;;;;;;10.65;3.08;;;;;;;10.32;100.00;101417.41;5052879;28;20022;-74
2023/05/18 05:39:45;;;;;;;8.48;2.45;;;;;;;10.40;100.00;101430.16;5051445;28;20100;-76
2023/05/18 05:42:11;;;;;;;7.40;2.15;;;;;;;10.54;100.00;101423.91;5052782;28;20029;-75
2023/05/18 05:44:36;;;;;;;8.98;2.38;;;;;;;10.78;100.00;101416.44;5052821;28;20094;-74
2023/05/18 05:47:02;;;;;;;6.97;2.53;;;;;;;11.03;99.79;101429.75;5052947;28;20032;-76
2023/05/18 05:49:27;;;;;;;6.22;2.00;;;;;;;11.28;98.70;101423.88;5051504;28;20428;-74
2023/05/18 05:51:53;;;;;;;8.77;2.30;;;;;;;11.51;97.00;101430.34;5052623;28;20108;-75
2023/05/18 05:54:18;;;;;;;8.05;2.40;;;;;;;11.76;94.67;101438.69;5034628;28;20535;-73
2023/05/18 05:56:43;;;;;;;3.92;1.48;;;;;;;12.00;92.68;101436.03;5035061;28;20041;-73
2023/05/18 05:59:09;;;;;;;9.88;2.72;;;;;;;12.20;89.74;101437.16;5053479;28;20036;-75
2023/05/18 06:01:35;;;;;;;5.75;2.33;;;;;;;12.37;88.72;101437.66;5053376;28;20021;-75
2023/05/18 06:04:02;;;;;;;4.60;2.22;;;;;;;12.61;87.45;101437.81;5054203;28;20028;-75
2023/05/18 06:06:29;;;;;;;9.00;2.50;;;;;;;12.82;84.72;101438.88;5054093;28;20033;-74
2023/05/18 06:08:55;;;;;;;6.10;2.20;;;;;;;12.96;84.36;101436.16;5053227;28;20033;-74
2023/05/18 06:11:30;;;;;;;7.97;2.42;;;;;;;13.12;81.72;101440.72;5054139;28;20037;-77
2023/05/18 06:13:59;;;;;;;6.65;2.58;;;;;;;13.20;80.03;101444.84;5053218;28;20028;-77
2023/05/18 06:16:25;;;;;;;8.90;2.40;;;;;;;13.27;76.71;101453.13;5054431;28;20029;-78
2023/05/18 06:18:51;;;;;;;10.80;1.98;;;;;;;13.24;73.29;101445.50;5054219;28;20025;-76
2023/05/18 06:21:17;;;;;;;4.90;1.73;;;;;;;13.19;72.18;101446.13;5052949;28;20079;-75
2023/05/18 06:23:43;;;;;;;6.93;1.80;;;;;;;13.17;71.13;101450.75;5054030;28;20466;-76
2023/05/18 06:26:10;;;;;;;5.35;1.85;;;;;;;13.18;70.01;101453.16;5053846;28;20370;-76
2023/05/18 06:28:35;;;;;;;6.20;1.60;;;;;;;13.17;68.62;101460.16;5052702;28;20082;-74
2023/05/18 06:31:01;;;;;;;10.23;2.03;;;;;;;13.16;69.63;101449.97;5054032;28;20438;-75
2023/05/18 06:33:27;;;;;;;8.32;1.90;;;;;;;13.25;70.84;101452.78;5035929;28;20024;-77
2023/05/18 06:35:52;;;;;;;9.32;1.80;;;;;;;13.40;70.13;101459.44;5053700;28;20134;-77
2023/05/18 06:38:18;;;;;;;11.75;2.13;;;;;;;13.48;67.69;101454.16;5053592;28;20044;-77
2023/05/18 06:40:43;;;;;;;7.10;1.60;;;;;;;13.56;65.42;101461.16;5053945;28;20017;-76
2023/05/18 06:43:09;;;;;;;11.10;2.28;;;;;;;13.58;62.63;101463.56;5053650;28;20452;-76
2023/05/18 06:45:35;;;;;;;10.93;2.22;;;;;;;13.46;61.27;101471.88;5053751;28;20043;-76
2023/05/18 06:48:00;;;;;;;6.63;1.63;;;;;;;13.42;61.92;101461.84;5035822;28;20024;-77
2023/05/18 06:50:25;;;;;;;9.60;1.75;;;;;;;13.41;61.83;101463.09;5053854;28;20077;-76
2023/05/18 06:52:51;;;;;;;4.20;1.40;;;;;;;13.38;61.01;101470.63;5053497;28;20037;-78
2023/05/18 06:55:18;;;;;;;5.05;1.60;;;;;;;13.37;61.47;101463.28;5052277;28;20049;-78
2023/05/18 06:57:45;;;;;;;10.45;1.98;;;;;;;13.40;61.35;101458.66;5052053;28;20124;-75
2023/05/18 07:00:13;;;;;;;8.40;2.60;;;;;;;13.43;62.74;101464.22;5053547;28;20462;-76
2023/05/18 07:02:42;;;;;;;5.05;1.58;;;;;;;13.48;63.09;101460.69;5053408;28;20076;-77
2023/05/18 07:05:08;;;;;;;11.50;2.22;;;;;;;13.66;63.29;101467.66;5053314;28;20135;-76
2023/05/18 07:07:36;;;;;;;8.38;1.73;;;;;;;13.81;61.92;101471.41;5053190;28;20108;-76
2023/05/18 07:10:02;;;;;;;11.20;2.60;;;;;;;13.92;62.26;101463.84;5053203;28;20032;-76
2023/05/18 07:12:28;;;;;;;3.97;1.58;;;;;;;14.06;61.10;101465.19;5053594;28;20024;-76
2023/05/18 07:14:56;;;;;;;6.03;1.67;;;;;;;14.32;62.01;101463.41;5053319;28;20043;-77
2023/05/18 07:17:21;;;;;;;7.07;1.67;;;;;;;14.63;60.66;101465.09;5053133;28;20040;-77
2023/05/18 07:19:47;;;;;;;8.02;1.65;;;;;;;14.99;60.25;101461.88;5053198;28;20021;-76
2023/05/18 07:22:12;;;;;;;4.53;1.77;;;;;;;15.43;58.10;101469.69;5034949;28;20464;-76
2023/05/18 07:24:38;;;;;;;5.55;1.85;;;;;;;15.79;54.83;101471.34;5053049;28;20382;-76
2023/05/18 07:27:05;;;;;;;9.18;2.45;;;;;;;15.96;53.09;101476.06;5052940;28;20028;-78
2023/05/18 07:29:31;;;;;;;9.98;2.05;;;;;;;16.09;51.53;101484.38;5052602;28;20049;-76
2023/05/18 07:31:57;;;;;;;10.15;2.03;;;;;;;16.13;50.42;101476.28;5052971;28;20021;-76
2023/05/18 07:34:25;;;;;;;5.07;1.42;;;;;;;16.17;49.61;101476.88;5053050;28;20465;-76
2023/05/18 07:36:51;;;;;;;6.57;1.63;;;;;;;16.27;49.47;101468.88;5053067;28;20036;-77
2023/05/18 07:39:18;;;;;;;5.88;1.70;;;;;;;16.34;48.94;101480.78;5053168;28;20029;-77
2023/05/18 07:41:47;;;;;;;10.55;1.83;;;;;;;16.50;49.21;101457.09;5053036;28;20024;-77
2023/05/18 07:44:13;;;;;;;2.90;1.13;;;;;;;16.84;47.71;101474.84;5051742;28;20385;-77
2023/05/18 07:46:39;;;;;;;8.43;1.75;;;;;;;17.19;47.55;101483.34;5051673;28;20021;-77
2023/05/18 07:49:04;;;;;;;7.30;1.60;;;;;;;17.67;47.60;101466.16;5052783;28;20079;-77
2023/05/18 07:51:30;;;;;;;7.70;1.98;;;;;;;18.19;44.18;101472.53;5052975;28;20406;-79
2023/05/18 07:53:56;;;;;;;6.10;1.80;;;;;;;18.53;42.86;101480.09;5051686;28;20420;-78
2023/05/18 07:56:22;;;;;;;7.78;1.70;;;;;;;18.87;41.36;101480.22;5052634;28;20486;-78
2023/05/18 07:58:48;;;;;;;10.18;1.98;;;;;;;19.15;40.37;101466.59;5038571;28;20029;-76
2023/05/18 08:01:13;;;;;;;8.82;1.90;;;;;;;19.34;39.74;101461.06;5057035;28;20027;-78
2023/05/18 08:03:39;;;;;;;4.97;1.55;;;;;;;19.47;39.03;101470.81;5055529;28;20024;-78
2023/05/18 08:06:07;;;;;;;10.35;2.53;;;;;;;19.69;39.62;101470.03;5055704;28;20115;-79
2023/05/18 08:08:36;;;;;;;10.95;2.10;;;;;;;20.26;39.99;101469.38;5057093;28;20108;-77
2023/05/18 08:11:02;;;;;;;8.70;2.28;;;;;;;21.11;37.80;101465.53;5055289;28;20039;-76
2023/05/18 08:13:27;;;;;;;8.35;2.60;;;;;;;21.86;36.07;101451.44;5056486;28;20017;-74
2023/05/18 08:15:53;;;;;;;8.10;1.88;;;;;;;22.69;36.31;101454.69;5056441;28;20063;-77
2023/05/18 08:18:19;;;;;;;5.10;1.50;;;;;;;23.36;33.59;101454.47;5056314;28;20104;-76
2023/05/18 08:20:46;;;;;;;7.10;1.70;;;;;;;23.71;32.93;101451.25;5056460;28;20394;-78
2023/05/18 08:23:11;;;;;;;4.35;1.20;;;;;;;24.06;32.41;101452.19;5056178;28;20110;-78
2023/05/18 08:25:37;;;;;;;5.53;1.60;;;;;;;24.74;31.86;101443.63;5056471;28;20364;-77
2023/05/18 08:28:03;;;;;;;5.82;1.77;;;;;;;25.58;29.77;101442.44;5056201;28;20454;-77
2023/05/18 08:30:29;;;;;;;5.18;1.67;;;;;;;26.33;28.56;101436.34;5056235;28;20021;-77
2023/05/18 08:32:55;;;;;;;6.55;1.77;;;;;;;26.30;27.08;101437.53;5056026;28;20557;-77
2023/05/18 08:35:21;;;;;;;4.43;1.30;;;;;;;25.79;27.03;101431.47;5056163;28;20470;-76
2023/05/18 08:37:46;;;;;;;4.18;1.23;;;;;;;25.29;27.82;101430.59;5056108;28;20052;-76
2023/05/18 08:40:14;;;;;;;10.27;1.65;;;;;;;25.26;28.00;101425.13;5056039;28;20029;-76
2023/05/18 08:42:50;;;;;;;5.25;1.15;;;;;;;25.34;27.79;101441.38;5054853;28;20025;-76
2023/05/18 08:45:35;;;;;;;8.77;1.70;;;;;;;25.16;27.33;101436.53;5055865;28;20025;-75
2023/05/18 08:48:01;;;;;;;3.80;1.38;;;;;;;25.03;28.06;101431.53;5055781;28;20533;-79
2023/05/18 08:50:31;;;;;;;4.55;1.67;;;;;;;25.21;27.88;101426.03;5056302;28;20031;-74
2023/05/18 08:53:01;;;;;;;4.00;1.27;;;;;;;25.36;27.08;101432.03;5054715;28;20458;-75
2023/05/18 08:55:29;;;;;;;5.63;1.70;;;;;;;25.58;28.24;101424.88;5021423;28;20053;-75
2023/05/18 08:57:58;;;;;;;6.25;1.77;;;;;;;26.04;27.87;101425.97;5054957;28;20029;-77
2023/05/18 09:00:24;;;;;;;4.93;1.58;;;;;;;26.18;26.71;101427.47;5054935;28;20024;-78
2023/05/18 09:02:51;;;;;;;4.00;1.52;;;;;;;26.19;27.36;101421.03;5038140;28;20033;-77
2023/05/18 09:05:20;;;;;;;7.93;1.75;;;;;;;26.13;25.78;101411.63;5056042;28;20021;-76
2023/05/18 09:07:48;;;;;;;5.78;2.00;;;;;;;25.73;26.82;101414.03;5054339;28;20041;-76
2023/05/18 09:10:17;;;;;;;3.90;1.67;;;;;;;25.47;27.35;101409.13;5036558;28;20037;-77
2023/05/18 09:12:50;;;;;;;5.70;1.50;;;;;;;25.32;27.62;101422.84;5055408;28;20060;-75
2023/05/18 09:15:17;;;;;;;3.00;1.27;;;;;;;25.10;27.95;101421.25;5054556;28;20025;-74
2023/05/18 09:17:43;;;;;;;6.70;1.83;;;;;;;24.92;28.11;101417.16;5055243;28;20025;-77
2023/05/18 09:20:10;;;;;;;7.20;1.60;;;;;;;24.76;28.10;101426.28;5055445;28;20052;-79
2023/05/18 09:22:35;;;;;;;7.47;1.73;;;;;;;24.80;27.98;101424.59;5055510;28;20063;-76
2023/05/18 09:25:08;;;;;;;8.20;2.63;;;;;;;24.88;28.12;101421.78;5053950;28;20470;-77
2023/05/18 09:27:33;;;;;;;3.60;1.25;;;;;;;24.98;28.90;101425.81;5053827;28;20079;-76
2023/05/18 09:30:03;;;;;;;6.13;1.63;;;;;;;25.17;28.29;101428.53;5049380;28;20369;-77
2023/05/18 09:32:35;;;;;;;6.75;1.75;;;;;;;25.38;28.42;101409.63;5055391;28;20025;-80
2023/05/18 09:35:06;;;;;;;3.67;1.52;;;;;;;25.70;27.46;101418.13;5055366;28;20033;-78
2023/05/18 09:37:33;;;;;;;5.35;2.10;;;;;;;25.73;27.61;101422.81;5053730;28;20029;-78
2023/05/18 09:40:01;;;;;;;7.65;2.10;;;;;;;25.54;28.38;101418.56;5055047;28;20089;-78
2023/05/18 09:42:42;;;;;;;7.82;1.75;;;;;;;25.25;28.42;101415.56;5054225;28;20386;-77
2023/05/18 09:45:19;;;;;;;7.30;2.00;;;;;;;25.31;28.88;101424.97;5055112;28;20029;-78
2023/05/18 09:47:49;;;;;;;5.57;2.10;;;;;;;25.28;28.02;101422.41;5055193;28;20104;-80
2023/05/18 09:50:22;;;;;;;6.65;2.17;;;;;;;24.92;28.50;101414.25;5054095;28;20033;-77
2023/05/18 09:52:49;;;;;;;3.88;1.27;;;;;;;24.55;29.36;101405.75;5054051;28;20037;-78
2023/05/18 09:55:17;;;;;;;5.93;2.15;;;;;;;24.43;30.10;101419.84;5054410;28;20044;-76
2023/05/18 09:57:45;;;;;;;7.70;1.65;;;;;;;24.41;29.73;101407.94;5053462;28;20086;-79
2023/05/18 10:00:32;;;;;;;6.88;1.77;;;;;;;24.28;30.18;101413.00;5053760;28;20033;-76
2023/05/18 10:03:06;;;;;;;6.55;2.15;;;;;;;23.97;30.54;101412.53;5052337;28;20123;-77
2023/05/18 10:05:33;;;;;;;5.97;1.38;;;;;;;23.76;30.46;101414.53;5054627;28;20374;-77
2023/05/18 10:08:00;;;;;;;6.15;1.42;;;;;;;23.70;31.70;101417.56;5054579;28;20080;-77
2023/05/18 10:10:31;;;;;;;3.97;1.50;;;;;;;23.58;30.73;101419.13;5053199;28;20378;-78
2023/05/18 10:12:57;;;;;;;5.30;1.52;;;;;;;23.27;29.64;101414.84;5053308;28;20028;-77
2023/05/18 10:15:25;;;;;;;17.58;2.13;;;;;;;22.85;31.36;101419.47;5054530;28;20483;-77
2023/05/18 10:17:56;;;;;;;5.22;1.50;;;;;;;22.44;31.57;101416.09;5052991;28;20033;-78
2023/05/18 10:20:24;;;;;;;3.70;1.20;;;;;;;22.15;32.33;101422.78;5054067;28;20052;-76
2023/05/18 10:22:54;;;;;;;3.90;1.35;;;;;;;22.04;31.82;101414.97;5052983;28;20443;-78
2023/05/18 10:25:23;;;;;;;9.27;1.63;;;;;;;21.99;33.18;101427.47;5053247;28;20111;-77
2023/05/18 10:27:49;;;;;;;7.50;1.20;;;;;;;21.96;32.36;101422.75;5036459;28;20474;-77
2023/05/18 10:30:16;;;;;;;2.53;1.35;;;;;;;21.68;31.77;101417.22;5019902;28;20029;-79
2023/05/18 10:32:43;;;;;;;2.08;1.10;;;;;;;21.24;32.39;101410.44;5052927;28;20029;-78
2023/05/18 10:35:09;;;;;;;3.05;1.23;;;;;;;20.92;33.21;101411.50;5054160;28;20037;-76
2023/05/18 10:37:49;;;;;;;5.35;1.45;;;;;;;20.81;34.22;101409.47;5052850;28;20111;-77
2023/05/18 10:40:16;;;;;;;6.63;2.38;;;;;;;20.78;34.36;101414.25;5052899;28;20107;-77
2023/05/18 10:42:42;;;;;;;6.38;1.40;;;;;;;20.70;33.99;101395.78;5053958;28;20025;-78
2023/05/18 10:45:09;;;;;;;3.30;1.00;;;;;;;20.53;33.02;101395.09;5052084;28;20031;-77
2023/05/18 10:47:43;;;;;;;4.95;1.00;;;;;;;20.21;32.98;101405.53;5053470;28;20020;-78
2023/05/18 10:50:11;;;;;;;3.35;1.25;;;;;;;19.78;34.04;101414.63;5053819;28;20474;-78
2023/05/18 10:52:41;;;;;;;7.40;1.15;;;;;;;19.40;34.53;101409.69;5053852;28;20074;-77
2023/05/18 10:55:08;;;;;;;2.47;1.10;;;;;;;19.17;34.95;101414.69;5052149;28;20033;-78
2023/05/18 10:57:37;;;;;;;;;;;;;;;18.88;34.75;101409.34;5052648;28;20044;-79
2023/05/18 11:00:06;;;;;;;5.70;1.35;;;;;;;18.47;35.57;101406.91;5042396;28;19924;-76
2023/05/18 11:02:32;;;;;;;3.95;1.50;;;;;;;18.26;36.48;101412.06;5026217;28;20470;-75
2023/05/18 11:04:58;;;;;;;2.28;1.13;;;;;;;18.15;36.45;101420.69;5044911;28;20032;-77
2023/05/18 11:07:27;;;;;;;4.38;0.98;;;;;;;18.01;36.74;101410.13;5033703;28;20036;-77
2023/05/18 11:09:52;;;;;;;1.83;0.82;;;;;;;17.82;36.47;101418.44;5033296;28;20049;-77
2023/05/18 11:12:36;;;;;;;3.92;0.90;;;;;;;17.66;36.84;101407.56;5015848;28;20044;-77
2023/05/18 11:15:18;;;;;;;3.25;0.90;;;;;;;17.42;37.84;101402.13;5033780;28;20044;-75
2023/05/18 11:17:44;;;;;;;4.88;1.27;;;;;;;17.28;39.10;101408.03;5033177;28;20059;-74
2023/05/18 11:20:14;;;;;;;3.30;0.70;;;;;;;17.10;38.04;101417.06;5033387;28;20040;-74
2023/05/18 11:22:45;;;;;;;1.88;0.93;;;;;;;16.85;38.49;101427.31;5032235;28;20136;-79
2023/05/18 11:25:27;;;;;;;5.28;1.10;;;;;;;16.67;38.74;101410.34;5033247;28;20424;-78
2023/05/18 11:27:53;;;;;;;;;;;;;;;16.44;38.97;101406.41;5033498;28;20543;-78
2023/05/18 11:30:39;;;;;;;3.83;1.13;;;;;;;16.30;39.87;101405.22;5032151;28;19917;-77